createdAt,value
2019-05-23T00:01:38.006Z,72.11
2019-05-23T00:17:05.383Z,71.57
2019-05-23T00:32:34.729Z,71.76
2019-05-23T00:47:50.772Z,71.62
2019-05-23T01:02:59.154Z,71.49
2019-05-23T01:18:12.506Z,71.70
2019-05-23T01:33:26.319Z,71.90
2019-05-23T01:48:35.085Z,71.81
2019-05-23T02:03:45.889Z,71.72
2019-05-23T02:18:54.269Z,71.70
2019-05-23T02:34:04.700Z,71.56
2019-05-23T02:49:18.229Z,71.45
2019-05-23T03:04:31.970Z,71.70
2019-05-23T03:20:01.813Z,71.32
2019-05-23T03:35:15.564Z,71.17
2019-05-23T03:50:25.365Z,71.39
2019-05-23T04:05:36.533Z,71.21
2019-05-23T04:20:45.587Z,71.41
2019-05-23T04:35:57.419Z,71.85
2019-05-23T04:51:07.847Z,71.39
2019-05-23T05:06:19.078Z,71.29
2019-05-23T05:21:28.128Z,71.43
2019-05-23T05:36:35.193Z,71.65
2019-05-23T05:51:42.856Z,71.69
2019-05-23T06:06:57.231Z,71.59
2019-05-23T06:22:08.097Z,71.60
2019-05-23T06:37:18.059Z,71.24
2019-05-23T06:52:28.551Z,71.08
2019-05-23T07:07:38.435Z,70.06
2019-05-23T07:22:48.713Z,70.28
2019-05-23T07:37:57.871Z,70.48
2019-05-23T07:53:08.083Z,70.51
2019-05-23T08:08:17.037Z,70.10
2019-05-23T08:23:24.433Z,70.17
2019-05-23T08:38:34.087Z,70.12
2019-05-23T08:53:41.998Z,69.46
2019-05-23T09:08:53.041Z,68.66
2019-05-23T09:24:01.628Z,68.41
2019-05-23T09:39:14.650Z,68.28
2019-05-23T09:54:22.833Z,68.42
2019-05-23T10:09:36.100Z,68.40
2019-05-23T10:24:44.168Z,68.82
2019-05-23T10:40:02.014Z,68.75
2019-05-23T10:55:10.874Z,69.22
2019-05-23T11:10:20.645Z,69.61
2019-05-23T11:25:31.275Z,69.36
2019-05-23T11:40:38.733Z,69.44
2019-05-23T11:55:53.423Z,70.05
2019-05-23T12:10:56.325Z,70.21
2019-05-23T12:26:09.463Z,70.44
2019-05-23T12:41:20.524Z,70.57
2019-05-23T12:56:32.550Z,70.21
2019-05-23T13:11:42.038Z,69.99
2019-05-23T13:26:53.067Z,70.36
2019-05-23T13:42:02.728Z,69.18
2019-05-23T13:57:11.985Z,69.91
2019-05-23T14:12:22.168Z,69.72
2019-05-23T14:27:44.290Z,68.79
2019-05-23T14:43:02.556Z,68.90
2019-05-23T14:58:11.867Z,68.54
2019-05-23T15:13:20.777Z,68.83
2019-05-23T15:28:28.578Z,69.03
2019-05-23T15:43:37.702Z,69.19
2019-05-23T15:58:52.511Z,69.91
2019-05-23T16:14:02.259Z,69.98
2019-05-23T16:29:10.996Z,69.27
2019-05-23T16:44:21.388Z,69.72
2019-05-23T16:59:40.391Z,70.10
2019-05-23T17:14:51.758Z,69.92
2019-05-23T17:29:59.903Z,70.15
2019-05-23T17:45:17.765Z,70.34
2019-05-23T18:00:27.724Z,70.77
2019-05-23T18:15:37.054Z,70.90
2019-05-23T18:30:58.694Z,71.03
2019-05-23T18:46:10.959Z,71.25
2019-05-23T19:01:19.734Z,71.53
2019-05-23T19:16:26.987Z,71.03
2019-05-23T19:31:37.633Z,70.60
2019-05-23T19:46:45.509Z,71.05
2019-05-23T20:01:57.459Z,71.12
2019-05-23T20:17:07.045Z,71.35
2019-05-23T20:32:14.985Z,71.40
2019-05-23T20:47:22.709Z,71.33
2019-05-23T21:02:33.709Z,71.07
2019-05-23T21:17:42.674Z,70.75
2019-05-23T21:32:49.688Z,70.66
2019-05-23T21:48:00.044Z,70.98
2019-05-23T22:03:09.181Z,71.17
2019-05-23T22:18:17.519Z,71.31
2019-05-23T22:33:41.718Z,71.29
2019-05-23T22:48:50.377Z,71.41
2019-05-23T23:04:00.594Z,71.66
2019-05-23T23:19:08.446Z,71.45
2019-05-23T23:34:16.737Z,71.82
2019-05-23T23:49:42.257Z,71.94
